Time;durP1;ratioP1;P1;durP2;ratioP2;P2;SDS_P1;SDS_P2;PMS_P1;PMS_P2;Temp;Humidity;BMP_temperature;BMP_pressure;BME280_temperature;BME280_humidity;BME280_pressure;Samples;Min_cycle;Max_cycle;Signal;HPM_P1;HPM_P2
2022/04/17 00:00:07;;;;;;;;;3.00;3.00;;;;;18.02;36.99;102039.72;2111687;27;48183;-60
2022/04/17 00:01:07;;;;;;;;;4.25;4.25;;;;;18.02;37.13;102038.84;2098541;28;47521;-58
2022/04/17 00:02:08;;;;;;;;;4.00;4.00;;;;;18.01;36.81;102034.38;2098471;28;48098;-59
2022/04/17 00:03:08;;;;;;;;;4.00;4.00;;;;;18.01;37.03;102031.69;2111129;27;47526;-58
2022/04/17 00:04:10;;;;;;;;;3.67;3.67;;;;;17.99;36.85;102034.44;2104107;27;48011;-59
2022/04/17 00:05:11;;;;;;;;;3.67;3.67;;;;;17.97;37.02;102036.31;2063636;27;1128105;-59
2022/04/17 00:06:13;;;;;;;;;4.00;4.00;;;;;17.97;36.99;102032.75;2101268;28;47168;-60
2022/04/17 00:07:14;;;;;;;;;5.00;5.00;;;;;17.97;37.18;102032.75;2098162;27;47095;-60
2022/04/17 00:08:14;;;;;;;;;5.33;5.00;;;;;17.97;37.01;102027.38;2101144;28;48030;-60
2022/04/17 00:09:15;;;;;;;;;5.00;4.33;;;;;17.97;36.93;102035.44;2099377;28;47670;-59
2022/04/17 00:10:16;;;;;;;;;5.67;5.67;;;;;17.97;37.16;102030.06;2107783;27;47561;-58
2022/04/17 00:11:17;;;;;;;;;4.50;4.50;;;;;17.96;37.10;102036.34;2112156;27;48083;-58
2022/04/17 00:12:17;;;;;;;;;4.67;4.67;;;;;17.96;36.97;102030.97;2107374;27;47463;-59
2022/04/17 00:13:18;;;;;;;;;4.00;4.00;;;;;17.93;36.99;102030.16;2112507;27;47593;-59
2022/04/17 00:14:18;;;;;;;;;5.00;5.00;;;;;17.92;37.06;102025.72;2108786;27;48216;-59
2022/04/17 00:15:19;;;;;;;;;2.00;2.00;;;;;17.93;37.20;102024.78;2105668;27;47980;-58
2022/04/17 00:16:19;;;;;;;;;4.67;4.67;;;;;17.94;36.84;102026.53;2110842;27;47651;-58
2022/04/17 00:17:21;;;;;;;;;6.33;5.67;;;;;17.93;36.74;102024.78;2104460;28;47933;-58
2022/04/17 00:18:22;;;;;;;;;3.00;3.00;;;;;17.91;36.71;102026.66;2104428;28;47947;-58
2022/04/17 00:19:23;;;;;;;;;5.00;5.00;;;;;17.89;36.84;102024.91;2112323;27;47941;-59
2022/04/17 00:20:23;;;;;;;;;6.00;5.67;;;;;17.84;36.85;102025.06;2104256;28;47819;-59
2022/04/17 00:21:23;;;;;;;;;4.00;4.00;;;;;17.82;36.74;102020.69;2086117;28;46922;-59
2022/04/17 00:22:25;;;;;;;;;5.67;5.67;;;;;17.81;37.13;102013.53;2092706;28;47757;-58
2022/04/17 00:23:25;;;;;;;;;8.25;5.25;;;;;17.79;37.20;102010.03;2106677;27;47924;-58
2022/04/17 00:24:27;;;;;;;;;4.33;4.33;;;;;17.77;37.15;102011.88;2112258;27;47942;-58
2022/04/17 00:25:27;;;;;;;;;5.75;4.75;;;;;17.75;37.06;102009.22;2082742;28;47976;-59
2022/04/17 00:26:27;;;;;;;;;2.50;2.50;;;;;17.73;37.05;102007.53;2082484;28;47095;-60
2022/04/17 00:27:28;;;;;;;;;3.67;3.67;;;;;17.71;36.78;102012.94;2112732;27;47463;-58
2022/04/17 00:28:28;;;;;;;;;5.00;5.00;;;;;17.70;37.03;102013.00;2108838;27;47885;-58
2022/04/17 00:29:29;;;;;;;;;4.33;4.33;;;;;17.69;36.99;102005.88;2112620;27;46864;-59
2022/04/17 00:30:29;;;;;;;;;5.33;5.33;;;;;17.68;37.06;102010.31;2112772;27;47650;-59
2022/04/17 00:31:29;;;;;;;;;4.00;4.00;;;;;17.66;37.03;102009.50;2108925;27;48168;-59
2022/04/17 00:32:31;;;;;;;;;5.00;5.00;;;;;17.65;37.04;102013.97;2111661;27;47688;-59
2022/04/17 00:33:31;;;;;;;;;6.50;6.25;;;;;17.63;37.16;102004.19;2082542;28;47592;-58
2022/04/17 00:34:32;;;;;;;;;4.00;4.00;;;;;17.61;36.70;102011.44;2082389;27;47401;-57
2022/04/17 00:35:34;;;;;;;;;3.67;3.67;;;;;17.59;36.85;102016.84;2113057;27;47322;-57
2022/04/17 00:36:34;;;;;;;;;3.25;3.25;;;;;17.57;36.75;102013.34;2112097;27;47978;-58
2022/04/17 00:37:36;;;;;;;;;2.00;2.00;;;;;17.56;37.03;102011.56;2111996;27;47725;-58
2022/04/17 00:38:37;;;;;;;;;4.75;4.75;;;;;17.53;36.76;102006.31;2113013;27;48536;-60
2022/04/17 00:39:37;;;;;;;;;5.00;3.67;;;;;17.51;36.78;102007.25;2108857;27;47653;-58
2022/04/17 00:40:38;;;;;;;;;5.00;5.00;;;;;17.47;37.17;102009.16;2111453;27;47732;-57
2022/04/17 00:41:38;;;;;;;;;3.67;3.67;;;;;17.45;36.79;102000.28;2107886;27;47922;-57
2022/04/17 00:42:41;;;;;;;;;3.00;3.00;;;;;17.44;36.65;102008.38;2108465;27;47644;-58
2022/04/17 00:43:47;;;;;;;;;2.25;2.25;;;;;17.40;36.92;102007.56;2112504;27;47807;-58
2022/04/17 00:44:47;;;;;;;;;5.00;4.00;;;;;17.38;36.89;102009.41;2109550;27;47233;-58
2022/04/17 00:45:47;;;;;;;;;5.00;5.00;;;;;17.36;37.04;102001.41;2108329;27;47248;-55
2022/04/17 00:46:48;;;;;;;;;5.33;5.33;;;;;17.34;37.14;102013.13;2112884;27;47357;-59
2022/04/17 00:47:49;;;;;;;;;4.67;4.67;;;;;17.32;37.17;102006.94;2107677;27;47449;-58
2022/04/17 00:48:49;;;;;;;;;3.33;3.00;;;;;17.30;36.96;102003.41;2099751;28;45849;-58
2022/04/17 00:49:49;;;;;;;;;4.00;4.00;;;;;17.29;37.17;102009.72;2094490;28;48067;-58
2022/04/17 00:50:51;;;;;;;;;4.00;4.00;;;;;17.28;37.14;102010.63;2103817;28;47587;-58
2022/04/17 00:51:52;;;;;;;;;3.25;3.25;;;;;17.25;37.30;102011.59;2110120;27;47964;-58
2022/04/17 00:52:53;;;;;;;;;6.25;5.50;;;;;17.24;36.75;102007.16;2106068;27;47396;-57
2022/04/17 00:53:54;;;;;;;;;3.00;3.00;;;;;17.23;37.14;102005.38;2107556;27;48054;-60
2022/04/17 00:54:55;;;;;;;;;4.75;4.25;;;;;17.23;36.62;102001.81;2103152;27;47866;-57
2022/04/17 00:55:56;;;;;;;;;3.50;3.00;;;;;17.21;36.87;102006.34;2104032;27;47526;-58
2022/04/17 00:56:59;;;;;;;;;3.00;3.00;;;;;17.20;36.91;102007.28;2108726;27;48376;-59
2022/04/17 00:58:00;;;;;;;;;4.75;4.75;;;;;17.19;37.02;102000.16;2108872;27;47719;-57
2022/04/17 00:59:03;;;;;;;;;5.00;5.00;;;;;17.18;36.60;101999.28;2104694;27;47782;-61
2022/04/17 01:00:05;;;;;;;;;4.75;3.75;;;;;17.18;36.94;102001.97;2109823;27;47620;-59
2022/04/17 01:01:05;;;;;;;;;3.25;3.25;;;;;17.17;36.97;101997.53;2107724;27;48129;-59
2022/04/17 01:02:06;;;;;;;;;4.00;4.00;;;;;17.14;37.19;101992.22;2107729;27;48071;-59
2022/04/17 01:03:10;;;;;;;;;3.00;3.00;;;;;17.14;37.28;101994.91;2111128;27;47523;-59
2022/04/17 01:04:12;;;;;;;;;3.50;3.50;;;;;17.14;37.34;101997.59;2107827;27;47752;-58
2022/04/17 01:05:12;;;;;;;;;4.00;4.00;;;;;17.16;36.62;101993.09;2108417;27;47403;-58
2022/04/17 01:06:12;;;;;;;;;4.67;4.67;;;;;17.15;36.88;101999.38;2111407;27;47264;-58
2022/04/17 01:07:14;;;;;;;;;2.33;2.33;;;;;17.16;37.13;101994.91;2097846;27;48084;-59
2022/04/17 01:08:15;;;;;;;;;4.00;4.00;;;;;17.16;37.28;102001.13;2110452;27;47936;-59
2022/04/17 01:09:16;;;;;;;;;3.00;3.00;;;;;17.16;36.87;101994.91;2107156;27;47621;-59
2022/04/17 01:10:17;;;;;;;;;5.00;5.00;;;;;17.16;37.34;101992.22;2077642;28;48234;-58
2022/04/17 01:11:18;;;;;;;;;7.50;5.25;;;;;17.16;36.88;101993.09;2085005;28;47674;-58
2022/04/17 01:12:18;;;;;;;;;4.33;4.33;;;;;17.17;37.14;101992.16;2108316;27;47668;-59
2022/04/17 01:13:19;;;;;;;;;4.33;4.33;;;;;17.18;36.99;101999.28;2108237;27;47385;-58
2022/04/17 01:14:21;;;;;;;;;5.50;5.00;;;;;17.18;37.00;101991.25;2107704;27;47796;-58
2022/04/17 01:15:21;;;;;;;;;5.00;5.00;;;;;17.20;37.34;101999.25;2113925;27;47671;-59
2022/04/17 01:16:23;;;;;;;;;3.00;3.00;;;;;17.20;37.47;101992.06;2110094;27;46974;-58
2022/04/17 01:17:23;;;;;;;;;3.25;3.25;;;;;17.23;37.22;101999.13;2110398;27;47477;-59
2022/04/17 01:18:24;;;;;;;;;4.67;4.67;;;;;17.24;37.13;101992.84;2113788;27;47902;-58
2022/04/17 01:19:25;;;;;;;;;6.33;6.00;;;;;17.25;37.14;101991.91;2113482;27;47759;-60
2022/04/17 01:20:26;;;;;;;;;4.00;4.00;;;;;17.27;37.18;101990.06;2113747;27;47256;-57
2022/04/17 01:21:27;;;;;;;;;3.33;3.33;;;;;17.28;37.06;101992.75;2108391;27;47515;-58
2022/04/17 01:22:28;;;;;;;;;4.50;4.50;;;;;17.29;37.21;101986.44;2111554;27;48132;-58
2022/04/17 01:27:39;;;;;;;;;3.25;3.25;;;;;17.32;37.34;101974.72;2083985;28;47585;-58
2022/04/17 01:28:40;;;;;;;;;4.00;4.00;;;;;17.32;37.31;101982.78;2084249;28;47865;-58
2022/04/17 01:29:41;;;;;;;;;6.00;6.00;;;;;17.33;37.57;101979.19;2071900;28;47771;-58
2022/04/17 01:30:41;;;;;;;;;6.67;6.67;;;;;17.33;37.39;101977.38;2076867;28;47937;-59
2022/04/17 01:31:42;;;;;;;;;4.75;4.75;;;;;17.33;37.33;101974.69;2079545;28;48681;-57
2022/04/17 01:32:42;;;;;;;;;5.00;5.00;;;;;17.33;37.11;101972.00;2079183;28;47968;-58
2022/04/17 01:33:42;;;;;;;;;5.33;4.33;;;;;17.35;37.21;101977.31;2085101;28;48172;-57
2022/04/17 01:34:43;;;;;;;;;4.50;4.50;;;;;17.34;37.09;101967.50;2080670;28;47758;-58
2022/04/17 01:35:45;;;;;;;;;8.00;7.00;;;;;17.34;37.13;101978.25;2083781;28;47948;-58
2022/04/17 01:36:46;;;;;;;;;5.80;5.80;;;;;17.34;37.21;101968.41;2078698;28;48103;-58
2022/04/17 01:37:48;;;;;;;;;3.60;3.60;;;;;17.34;37.01;101973.75;2075297;28;47890;-58
2022/04/17 01:38:48;;;;;;;;;5.25;4.75;;;;;17.34;37.11;101975.56;2073640;28;48083;-60
2022/04/17 01:39:49;;;;;;;;;6.33;6.33;;;;;17.34;37.15;101970.19;2082662;28;48091;-59
2022/04/17 01:40:49;;;;;;;;;3.33;3.33;;;;;17.33;36.83;101965.75;2081752;28;47653;-58
2022/04/17 01:41:52;;;;;;;;;5.33;4.33;;;;;17.31;37.40;101971.19;2079371;28;47531;-58
2022/04/17 01:42:53;;;;;;;;;5.25;5.25;;;;;17.30;37.04;101972.09;2079112;28;47784;-58
2022/04/17 01:43:53;;;;;;;;;7.00;6.00;;;;;17.30;37.15;101961.38;2079272;28;47390;-59
2022/04/17 01:44:53;;;;;;;;;6.00;6.00;;;;;17.30;37.00;101964.06;2079250;28;47619;-59
2022/04/17 01:45:54;;;;;;;;;6.00;5.00;;;;;17.31;36.93;101964.94;2079060;28;48011;-60
2022/04/17 01:46:55;;;;;;;;;6.67;6.67;;;;;17.31;36.88;101963.13;2071061;28;47703;-58
2022/04/17 01:47:56;;;;;;;;;6.00;5.50;;;;;17.31;37.23;101957.75;2082420;28;47863;-58
2022/04/17 01:48:56;;;;;;;;;7.67;7.67;;;;;17.31;37.00;101963.13;2085378;28;47817;-58
2022/04/17 01:49:57;;;;;;;;;7.00;7.00;;;;;17.31;37.24;101964.94;2078901;28;47193;-58
2022/04/17 01:50:57;;;;;;;;;4.00;4.00;;;;;17.31;36.84;101960.44;2078857;28;47330;-58
2022/04/17 01:51:58;;;;;;;;;5.33;5.33;;;;;17.30;37.13;101966.75;2086733;28;48021;-58
2022/04/17 01:53:00;;;;;;;;;6.50;6.00;;;;;17.30;37.25;101960.50;2082272;28;48103;-58
2022/04/17 01:54:02;;;;;;;;;4.50;4.50;;;;;17.30;37.21;101963.19;2083652;28;47774;-58
2022/04/17 01:55:03;;;;;;;;;6.50;6.00;;;;;17.28;37.31;101963.22;2086365;28;47559;-59
2022/04/17 01:56:04;;;;;;;;;6.00;6.00;;;;;17.27;37.30;101961.44;2081443;28;47431;-58
2022/04/17 01:57:04;;;;;;;;;5.67;5.33;;;;;17.26;37.36;101961.47;2076221;28;47677;-57
2022/04/17 01:58:05;;;;;;;;;7.00;6.00;;;;;17.26;37.14;101965.03;2070683;28;47421;-58
2022/04/17 01:59:06;;;;;;;;;9.00;6.33;;;;;17.25;37.18;101962.41;2079295;28;47385;-58
2022/04/17 02:00:07;;;;;;;;;6.75;6.00;;;;;17.25;37.43;101965.97;2085952;28;47608;-58
2022/04/17 02:01:08;;;;;;;;;6.00;6.00;;;;;17.24;37.27;101953.47;2065814;28;47628;-59
2022/04/17 02:02:08;;;;;;;;;5.67;5.67;;;;;17.24;37.26;101966.03;2066473;28;47524;-58
2022/04/17 02:03:09;;;;;;;;;6.00;6.00;;;;;17.23;37.24;101965.16;2111805;27;47378;-58
2022/04/17 02:04:10;;;;;;;;;6.00;6.00;;;;;17.23;36.84;101964.25;2107939;27;48226;-57
2022/04/17 02:05:11;;;;;;;;;7.25;5.50;;;;;17.22;37.27;101962.50;2101320;28;47706;-58
2022/04/17 02:06:11;;;;;;;;;8.00;7.33;;;;;17.22;36.98;101965.19;2101787;28;47603;-56
2022/04/17 02:07:12;;;;;;;;;8.75;6.75;;;;;17.21;37.06;101966.13;2113670;27;47901;-58
2022/04/17 02:08:13;;;;;;;;;8.00;6.67;;;;;17.21;37.20;101958.06;2093772;28;47481;-58
2022/04/17 02:09:15;;;;;;;;;6.75;6.75;;;;;17.20;36.94;101959.00;2091555;28;47867;-58
2022/04/17 02:10:19;;;;;;;;;6.50;6.25;;;;;17.18;37.03;101963.53;2108681;27;47263;-58
2022/04/17 02:11:21;;;;;;;;;7.25;7.00;;;;;17.18;37.50;101969.78;2113003;27;48247;-59
2022/04/17 02:12:22;;;;;;;;;7.00;7.00;;;;;17.18;37.40;101958.16;2108489;27;47277;-58
2022/04/17 02:13:23;;;;;;;;;7.60;7.60;;;;;17.17;37.02;101961.78;2099494;28;47475;-58
2022/04/17 02:14:23;;;;;;;;;8.25;8.25;;;;;17.16;37.11;101952.84;2098344;28;48316;-58
2022/04/17 02:15:24;;;;;;;;;9.00;8.00;;;;;17.14;37.25;101952.00;2106542;27;47921;-57
2022/04/17 02:16:25;;;;;;;;;11.50;9.50;;;;;17.13;37.28;101947.56;2110235;27;47236;-59
2022/04/17 02:17:25;;;;;;;;;14.00;12.25;;;;;17.13;37.23;101957.41;2110452;27;47662;-58
2022/04/17 02:18:26;;;;;;;;;8.00;8.00;;;;;17.12;36.96;101950.28;2107311;27;48131;-59
2022/04/17 02:19:27;;;;;;;;;8.00;7.00;;;;;17.12;37.50;101955.66;2112347;27;47511;-58
2022/04/17 02:20:27;;;;;;;;;9.00;9.00;;;;;17.10;37.44;101949.47;2108523;27;47517;-57
2022/04/17 02:21:28;;;;;;;;;7.67;7.67;;;;;17.10;36.95;101953.00;2104490;28;48045;-58
2022/04/17 02:22:30;;;;;;;;;7.67;7.67;;;;;17.06;37.14;101948.69;2104337;28;47380;-57
2022/04/17 02:23:31;;;;;;;;;9.25;9.25;;;;;17.06;37.23;101954.91;2107060;27;48376;-58
2022/04/17 02:24:32;;;;;;;;;6.33;6.33;;;;;17.06;37.37;101956.72;2112067;27;47851;-58
2022/04/17 02:25:32;;;;;;;;;8.00;8.00;;;;;17.05;37.60;101953.16;2110436;27;47450;-58
2022/04/17 02:26:33;;;;;;;;;8.33;7.33;;;;;17.04;37.46;101950.53;2108755;27;47408;-58
2022/04/17 02:27:33;;;;;;;;;8.00;7.00;;;;;17.04;37.25;101953.22;2113417;27;47639;-59
2022/04/17 02:28:35;;;;;;;;;8.00;7.33;;;;;17.03;37.57;101944.28;2081942;28;47505;-59
2022/04/17 02:29:35;;;;;;;;;6.75;6.75;;;;;17.02;37.43;101947.91;2083892;28;47831;-58
2022/04/17 02:30:36;;;;;;;;;6.00;6.00;;;;;17.02;37.44;101945.22;2111986;27;47733;-58
2022/04/17 02:31:37;;;;;;;;;6.00;5.33;;;;;17.03;37.40;101946.97;2113682;27;47694;-58
2022/04/17 02:32:37;;;;;;;;;5.33;5.33;;;;;17.02;37.47;101946.97;2111727;27;47946;-58
2022/04/17 02:33:39;;;;;;;;;5.67;5.67;;;;;17.02;37.20;101944.31;2110533;27;47506;-58
2022/04/17 02:34:39;;;;;;;;;7.25;7.25;;;;;17.00;37.15;101940.78;2108577;27;47678;-58
2022/04/17 02:35:39;;;;;;;;;8.33;8.00;;;;;17.01;37.49;101947.91;2078197;28;48370;-57
2022/04/17 02:36:40;;;;;;;;;6.67;6.67;;;;;16.99;37.46;101947.97;2078213;28;47719;-58
2022/04/17 02:37:40;;;;;;;;;8.33;7.00;;;;;16.99;37.07;101941.72;2109829;27;47493;-58
2022/04/17 02:38:40;;;;;;;;;5.00;5.00;;;;;16.97;37.24;101947.13;2105117;28;47301;-58
2022/04/17 02:39:41;;;;;;;;;7.33;5.67;;;;;16.96;37.13;101942.69;2107499;27;47895;-59
2022/04/17 02:40:42;;;;;;;;;10.33;10.00;;;;;16.95;36.89;101942.75;2112085;27;47347;-59
2022/04/17 02:41:42;;;;;;;;;8.00;6.25;;;;;16.92;37.30;101937.47;2110943;27;47890;-58
2022/04/17 02:42:43;;;;;;;;;5.00;5.00;;;;;16.89;37.44;101930.38;2109113;27;47454;-58
2022/04/17 02:43:43;;;;;;;;;7.00;7.00;;;;;16.87;37.40;101940.25;2113280;27;47592;-57
2022/04/17 02:44:44;;;;;;;;;7.00;7.00;;;;;16.84;37.00;101935.00;2109393;27;47639;-59
2022/04/17 02:45:45;;;;;;;;;9.00;9.00;;;;;16.81;37.52;101937.78;2100961;28;47442;-58
2022/04/17 02:48:04;;;;;;;;;6.75;6.75;;;;;16.76;37.51;101939.69;2109959;27;48593;-57
2022/04/17 02:49:05;;;;;;;;;9.67;6.67;;;;;16.72;37.49;101933.53;2108586;27;47875;-58
2022/04/17 02:50:07;;;;;;;;;6.33;6.33;;;;;16.69;37.17;101927.38;2107120;27;47662;-58
2022/04/17 02:51:07;;;;;;;;;12.00;8.75;;;;;16.65;37.28;101925.69;2113104;27;47659;-58
2022/04/17 02:52:08;;;;;;;;;9.00;8.00;;;;;16.61;37.18;101932.03;2110475;27;47524;-59
2022/04/17 02:53:09;;;;;;;;;8.33;7.33;;;;;16.58;37.46;101930.31;2109572;27;47905;-58
2022/04/17 02:54:09;;;;;;;;;10.25;10.00;;;;;16.54;37.28;101925.97;2106715;27;47613;-59
2022/04/17 02:55:10;;;;;;;;;11.50;11.00;;;;;16.51;37.65;101926.03;2094309;28;47532;-59
2022/04/17 02:56:11;;;;;;;;;10.80;9.00;;;;;16.49;37.80;101934.13;2091233;28;47448;-59
2022/04/17 02:57:11;;;;;;;;;12.00;12.00;;;;;16.48;37.31;101924.31;2104660;28;47895;-59
2022/04/17 02:58:12;;;;;;;;;12.50;10.75;;;;;16.48;37.87;101923.44;2105891;27;47216;-58
2022/04/17 02:59:12;;;;;;;;;13.50;12.00;;;;;16.49;37.27;101922.53;2105959;27;47330;-59
2022/04/17 03:00:13;;;;;;;;;14.75;14.00;;;;;16.48;37.58;101921.66;2105071;28;47759;-57
2022/04/17 03:06:35;;;;;;;;;14.00;14.00;;;;;16.48;37.78;101915.41;2104721;28;48164;-58
2022/04/17 03:07:35;;;;;;;;;13.00;13.00;;;;;16.47;37.59;101914.53;2096981;28;47279;-58
2022/04/17 03:08:37;;;;;;;;;15.00;14.25;;;;;16.48;37.47;101913.59;2095291;28;47261;-58
2022/04/17 03:09:38;;;;;;;;;16.80;15.60;;;;;16.48;37.29;101912.72;2104551;27;47895;-58
2022/04/17 03:10:43;;;;;;;;;16.50;15.25;;;;;16.49;37.46;101911.81;2106064;27;46583;-57
2022/04/17 03:11:44;;;;;;;;;12.00;11.80;;;;;16.49;37.63;101909.13;2104573;28;47405;-58
2022/04/17 03:12:45;;;;;;;;;10.00;9.00;;;;;16.48;37.46;101910.94;2104465;27;47660;-59
2022/04/17 03:13:45;;;;;;;;;13.00;12.00;;;;;16.48;37.81;101913.59;2105589;27;47459;-59
2022/04/17 03:14:46;;;;;;;;;12.00;10.00;;;;;16.48;37.32;101904.69;2104909;28;47694;-59
2022/04/17 03:15:46;;;;;;;;;12.00;10.50;;;;;16.48;37.31;101908.25;2105937;27;47545;-58
2022/04/17 03:16:47;;;;;;;;;13.00;12.25;;;;;16.49;37.46;101915.38;2104766;27;48170;-59
2022/04/17 03:17:47;;;;;;;;;11.00;10.50;;;;;16.49;37.61;101901.09;2105478;27;47290;-59
2022/04/17 03:18:47;;;;;;;;;14.00;12.25;;;;;16.49;37.19;101910.00;2105753;27;48378;-59
2022/04/17 03:19:48;;;;;;;;;13.50;12.50;;;;;16.48;37.36;101910.94;2104949;28;47410;-57
2022/04/17 03:20:48;;;;;;;;;14.75;12.50;;;;;16.48;37.29;101907.38;2105445;27;47672;-58
2022/04/17 03:21:49;;;;;;;;;11.50;11.50;;;;;16.47;37.65;101908.28;2105536;27;47720;-58
2022/04/17 03:22:49;;;;;;;;;10.50;10.25;;;;;16.47;37.68;101910.97;2105268;27;47537;-60
2022/04/17 03:23:49;;;;;;;;;12.50;12.50;;;;;16.47;37.70;101909.16;2107410;27;47691;-59
2022/04/17 03:24:50;;;;;;;;;14.00;12.75;;;;;16.47;37.08;101905.63;2104397;27;47500;-57
2022/04/17 03:25:50;;;;;;;;;12.25;10.00;;;;;16.45;37.17;101902.97;2105179;27;47661;-58
2022/04/17 03:26:51;;;;;;;;;8.00;7.00;;;;;16.46;37.59;101909.22;2105406;27;47412;-58
2022/04/17 03:27:51;;;;;;;;;10.75;10.75;;;;;16.44;37.33;101906.59;2104717;28;48002;-59
2022/04/17 03:28:54;;;;;;;;;9.50;8.25;;;;;16.44;37.28;101911.06;2111642;27;48117;-57
2022/04/17 03:29:55;;;;;;;;;12.40;11.00;;;;;16.42;37.30;101907.56;2113053;27;47396;-59
2022/04/17 03:30:55;;;;;;;;;10.25;9.25;;;;;16.41;37.43;101906.69;2113028;27;47914;-59
2022/04/17 03:31:56;;;;;;;;;10.00;8.75;;;;;16.41;37.67;101908.47;2108100;27;47934;-59
2022/04/17 03:32:57;;;;;;;;;7.20;7.00;;;;;16.42;37.51;101907.56;2105133;27;47933;-59
2022/04/17 03:33:58;;;;;;;;;7.75;7.75;;;;;16.41;36.99;101903.13;2104806;27;47948;-57
2022/04/17 03:34:58;;;;;;;;;7.00;7.00;;;;;16.41;36.91;101901.31;2105251;27;47856;-58
2022/04/17 03:35:58;;;;;;;;;8.50;8.50;;;;;16.41;37.25;101903.13;2106822;27;47926;-59
2022/04/17 03:36:59;;;;;;;;;8.50;8.50;;;;;16.39;37.12;101897.81;2105490;27;47519;-59
2022/04/17 03:38:00;;;;;;;;;7.00;7.00;;;;;16.36;37.41;101897.84;2108303;27;47926;-58
2022/04/17 03:39:00;;;;;;;;;8.00;5.25;;;;;16.38;36.88;101898.69;2104426;28;47096;-60
2022/04/17 03:40:01;;;;;;;;;6.00;6.00;;;;;16.37;37.47;101896.06;2105408;27;47349;-58
2022/04/17 03:41:01;;;;;;;;;7.33;5.00;;;;;16.38;37.03;101897.81;2106078;27;47446;-58
2022/04/17 03:42:02;;;;;;;;;4.67;4.67;;;;;16.37;37.15;101893.38;2112889;27;47605;-58
2022/04/17 03:43:03;;;;;;;;;7.00;6.67;;;;;16.37;37.58;101896.06;2110579;27;47487;-57
2022/04/17 03:44:04;;;;;;;;;6.33;6.00;;;;;16.36;37.15;101894.31;2101308;28;47819;-58
2022/04/17 03:45:07;;;;;;;;;5.33;5.33;;;;;16.34;37.10;101894.34;2094248;28;47518;-58
2022/04/17 03:46:07;;;;;;;;;7.00;7.00;;;;;16.34;37.57;101898.84;2102024;27;48044;-58
2022/04/17 03:47:08;;;;;;;;;8.33;7.00;;;;;16.33;37.19;101891.72;2110400;27;47238;-57
2022/04/17 03:48:08;;;;;;;;;5.33;5.33;;;;;16.32;37.41;101892.63;2111280;27;47659;-58
2022/04/17 03:49:08;;;;;;;;;7.33;7.33;;;;;16.32;37.64;101896.19;2112676;27;47826;-60
2022/04/17 03:50:10;;;;;;;;;7.00;6.00;;;;;16.30;37.22;101895.38;2106291;27;47830;-58
2022/04/17 03:51:11;;;;;;;;;6.25;5.00;;;;;16.30;37.62;101894.47;2105843;27;47081;-58
2022/04/17 03:52:11;;;;;;;;;6.00;6.00;;;;;16.29;37.55;101898.09;2112672;27;47769;-58
2022/04/17 03:53:12;;;;;;;;;5.00;4.00;;;;;16.28;37.78;101905.25;2113158;27;47998;-59
2022/04/17 03:54:12;;;;;;;;;5.00;4.67;;;;;16.27;37.07;101894.56;2112484;27;48114;-58
2022/04/17 03:55:13;;;;;;;;;5.25;5.25;;;;;16.26;37.25;101896.38;2112452;27;47855;-59
2022/04/17 03:56:13;;;;;;;;;6.50;5.75;;;;;16.24;37.77;101897.31;2098610;28;47474;-58
2022/04/17 03:57:14;;;;;;;;;6.75;5.25;;;;;16.23;37.49;101892.88;2099809;28;47968;-59
2022/04/17 03:58:14;;;;;;;;;7.33;6.67;;;;;16.23;37.92;101898.22;2111130;27;47526;-57
2022/04/17 03:59:14;;;;;;;;;5.33;5.00;;;;;16.22;37.83;101900.03;2089049;28;48180;-58
2022/04/17 04:00:16;;;;;;;;;7.50;7.50;;;;;16.21;37.79;101900.94;2092399;28;48038;-58
2022/04/17 04:01:16;;;;;;;;;7.80;7.80;;;;;16.20;37.62;101901.88;2109842;27;47680;-59
2022/04/17 04:02:17;;;;;;;;;6.00;6.00;;;;;16.18;37.77;101896.56;2107266;27;47993;-58
2022/04/17 04:03:17;;;;;;;;;5.75;5.75;;;;;16.17;37.60;101900.16;2111983;27;47995;-59
2022/04/17 04:04:18;;;;;;;;;8.25;8.25;;;;;16.15;37.97;101896.66;2107448;27;47291;-58
2022/04/17 04:05:19;;;;;;;;;5.60;5.00;;;;;16.14;37.78;101894.00;2108645;27;47706;-57
2022/04/17 04:06:21;;;;;;;;;6.00;5.40;;;;;16.13;37.81;101893.13;2110842;27;48110;-58
2022/04/17 04:07:21;;;;;;;;;6.40;6.40;;;;;16.10;37.94;101887.84;2112811;27;47675;-58
2022/04/17 04:08:22;;;;;;;;;7.00;6.00;;;;;16.10;37.94;101895.88;2109937;27;48115;-59
2022/04/17 04:09:22;;;;;;;;;8.25;7.50;;;;;16.10;37.54;101892.31;2109590;27;47590;-59
2022/04/17 04:10:22;;;;;;;;;4.25;4.25;;;;;16.07;37.83;101892.41;2112498;27;47338;-58
2022/04/17 04:11:23;;;;;;;;;6.75;6.00;;;;;16.03;37.95;101890.72;2111889;27;47464;-58
2022/04/17 04:12:23;;;;;;;;;9.00;6.67;;;;;16.01;37.61;101880.06;2107462;27;48188;-59
2022/04/17 04:13:24;;;;;;;;;5.00;5.00;;;;;16.01;38.01;101893.44;2108745;27;47762;-59
2022/04/17 04:14:24;;;;;;;;;5.50;5.50;;;;;16.00;38.14;101885.44;2106550;27;47577;-58
2022/04/17 04:15:25;;;;;;;;;6.67;5.67;;;;;15.99;38.06;101892.59;2106482;27;48455;-57
2022/04/17 04:16:26;;;;;;;;;4.67;4.67;;;;;15.98;37.94;101881.91;2109938;27;47771;-59
2022/04/17 04:17:26;;;;;;;;;6.25;6.25;;;;;15.98;38.21;101885.47;2109958;27;47520;-59
2022/04/17 04:18:26;;;;;;;;;7.00;6.50;;;;;15.98;38.09;101888.16;2106232;27;47764;-58
2022/04/17 04:19:27;;;;;;;;;8.00;7.00;;;;;15.98;38.27;101890.81;2112102;27;48087;-60
2022/04/17 04:20:27;;;;;;;;;6.67;6.67;;;;;15.98;37.86;101896.19;2108097;27;45751;-59
2022/04/17 04:21:28;;;;;;;;;7.67;7.67;;;;;15.98;38.17;101887.28;2107953;27;47520;-59
2022/04/17 04:22:28;;;;;;;;;9.75;9.00;;;;;15.98;37.95;101895.31;2084600;28;48203;-59
2022/04/17 04:23:33;;;;;;;;;9.00;7.67;;;;;15.97;38.23;101886.41;2078279;28;47522;-59
2022/04/17 04:24:33;;;;;;;;;5.25;5.25;;;;;15.97;38.17;101888.19;2104429;28;48442;-59
2022/04/17 04:25:34;;;;;;;;;8.00;8.00;;;;;15.97;38.07;101886.41;2110332;27;48074;-59
2022/04/17 04:26:34;;;;;;;;;5.25;5.25;;;;;15.97;37.94;101893.53;2099198;28;47717;-58
2022/04/17 04:28:54;;;;;;;;;6.20;6.20;;;;;15.95;37.64;101882.00;2111435;27;47662;-59
2022/04/17 04:29:54;;;;;;;;;6.67;6.67;;;;;15.94;38.21;101885.59;2108504;27;47913;-58
2022/04/17 04:30:54;;;;;;;;;6.00;6.00;;;;;15.94;38.11;101889.16;2102698;28;47604;-57
2022/04/17 04:31:55;;;;;;;;;6.75;6.75;;;;;15.92;38.10;101882.97;2100342;28;48118;-59
2022/04/17 04:32:57;;;;;;;;;6.75;6.50;;;;;15.88;37.94;101876.81;2099175;28;48327;-59
2022/04/17 04:33:57;;;;;;;;;7.20;6.60;;;;;15.88;38.12;101881.28;2103896;27;48341;-59
2022/04/17 04:34:59;;;;;;;;;6.25;6.25;;;;;15.87;37.50;101883.06;2108289;27;47447;-59
2022/04/17 04:36:01;;;;;;;;;7.00;6.80;;;;;15.87;37.93;101882.19;2111765;27;47689;-58
2022/04/17 04:37:01;;;;;;;;;6.60;6.60;;;;;15.87;37.69;101879.50;2114405;27;47819;-58
2022/04/17 04:38:02;;;;;;;;;6.00;5.00;;;;;15.86;37.90;101877.75;2113198;27;48160;-59
2022/04/17 04:39:02;;;;;;;;;8.50;6.50;;;;;15.86;37.98;101877.75;2112603;27;47291;-58
2022/04/17 04:40:05;;;;;;;;;7.00;7.00;;;;;15.84;38.15;101880.47;2093440;28;47487;-59
2022/04/17 04:41:05;;;;;;;;;5.20;5.20;;;;;15.84;38.00;101877.78;2092110;28;47526;-59
2022/04/17 04:42:07;;;;;;;;;7.00;7.00;;;;;15.83;37.67;101878.72;2095724;28;47912;-58
2022/04/17 04:43:07;;;;;;;;;7.20;7.20;;;;;15.83;37.46;101881.38;2087617;28;48159;-59
2022/04/17 04:44:07;;;;;;;;;7.75;7.50;;;;;15.81;37.88;101877.00;2087730;28;47987;-58
2022/04/17 04:46:27;;;;;;;;;7.25;7.25;;;;;15.79;38.07;101878.84;2090424;28;48359;-59
2022/04/17 04:47:27;;;;;;;;;7.00;7.00;;;;;15.77;37.58;101884.22;2091178;28;47391;-58
2022/04/17 04:49:46;;;;;;;;;7.60;7.60;;;;;15.79;37.49;101881.50;2090534;28;47840;-59
2022/04/17 04:50:47;;;;;;;;;8.00;8.00;;;;;15.76;37.80;101879.81;2088078;28;47429;-59
2022/04/17 04:51:47;;;;;;;;;7.50;7.50;;;;;15.75;37.36;101877.13;2094208;28;45629;-58
2022/04/17 04:52:47;;;;;;;;;6.25;6.25;;;;;15.73;37.63;101878.97;2080750;28;47789;-58
2022/04/17 04:53:49;;;;;;;;;6.50;6.50;;;;;15.72;37.37;101879.88;2083518;28;47270;-58
2022/04/17 04:54:49;;;;;;;;;6.50;6.50;;;;;15.72;37.53;101879.88;2087714;28;47820;-59
2022/04/17 04:55:54;;;;;;;;;7.33;6.67;;;;;15.71;37.61;101883.50;2087753;28;47447;-59
2022/04/17 04:56:57;;;;;;;;;6.80;5.00;;;;;15.68;37.46;101895.16;2093223;28;47628;-59